Time;durP1;ratioP1;P1;durP2;ratioP2;P2;SDS_P1;SDS_P2;PMS_P1;PMS_P2;Temp;Humidity;BMP_temperature;BMP_pressure;BME280_temperature;BME280_humidity;BME280_pressure;Samples;Min_cycle;Max_cycle;Signal;HPM_P1;HPM_P2
2023/01/06 00:00:39;;;;;;;6.38;2.33;;;;;;;;;;5070221;28;20032;-76
2023/01/06 00:03:05;;;;;;;2.42;1.67;;;;;;;;;;5069296;28;20032;-75
2023/01/06 00:05:31;;;;;;;4.10;2.40;;;;;;;;;;5068949;28;20021;-76
2023/01/06 00:07:58;;;;;;;5.20;2.22;;;;;;;;;;5068859;28;20081;-76
2023/01/06 00:10:24;;;;;;;7.33;2.77;;;;;;;;;;5068556;28;20028;-76
2023/01/06 00:12:51;;;;;;;3.25;1.45;;;;;;;;;;5043997;28;20034;-76
2023/01/06 00:15:17;;;;;;;3.22;1.85;;;;;;;;;;5067618;28;20032;-76
2023/01/06 00:17:43;;;;;;;2.72;1.55;;;9.90;99.90;;;;;;5069228;28;20451;-76
2023/01/06 00:20:10;;;;;;;2.72;1.65;;;9.70;99.90;;;;;;5068432;28;20677;-77
2023/01/06 00:22:38;;;;;;;3.65;1.98;;;9.60;99.90;;;;;;5068572;28;20394;-77
2023/01/06 00:25:04;;;;;;;1.80;1.70;;;;;;;;;;5055514;28;20068;-76
2023/01/06 00:27:31;;;;;;;5.55;1.67;;;9.80;99.90;;;;;;5049641;28;20033;-76
2023/01/06 00:29:56;;;;;;;1.92;0.93;;;9.80;99.90;;;;;;5048941;28;20032;-76
2023/01/06 00:32:22;;;;;;;2.22;1.13;;;;;;;;;;5062162;28;20544;-76
2023/01/06 00:34:48;;;;;;;1.38;1.25;;;10.20;99.90;;;;;;5062658;28;20649;-76
2023/01/06 00:37:14;;;;;;;1.65;1.08;;;;;;;;;;5049940;28;20075;-76
2023/01/06 00:39:39;;;;;;;2.90;1.10;;;9.80;99.90;;;;;;5049778;28;20024;-76
2023/01/06 00:42:06;;;;;;;1.40;0.90;;;;;;;;;;5049829;28;20025;-76
2023/01/06 00:44:39;;;;;;;2.47;1.07;;;9.90;99.90;;;;;;5049244;28;20092;-76
2023/01/06 00:47:07;;;;;;;1.30;1.20;;;9.90;99.90;;;;;;5049763;28;20047;-76
2023/01/06 00:49:34;;;;;;;1.33;1.08;;;;;;;;;;5062458;28;20017;-76
2023/01/06 00:52:00;;;;;;;1.85;1.10;;;;;;;;;;5049373;28;20035;-76
2023/01/06 00:54:26;;;;;;;1.88;0.85;;;;;;;;;;5051031;28;20155;-76
2023/01/06 00:56:53;;;;;;;1.90;0.88;;;9.90;99.90;;;;;;5069041;28;20025;-76
2023/01/06 00:59:23;;;;;;;1.40;0.70;;;9.90;99.90;;;;;;5067892;28;20032;-77
2023/01/06 01:01:51;;;;;;;0.77;0.77;;;9.90;99.90;;;;;;5068592;28;20586;-76
2023/01/06 01:04:17;;;;;;;0.93;0.82;;;;;;;;;;5067637;28;20048;-77
2023/01/06 01:06:44;;;;;;;1.13;0.90;;;9.90;99.90;;;;;;5068387;28;20028;-76
2023/01/06 01:09:23;;;;;;;3.45;1.33;;;9.90;99.90;;;;;;5051786;28;20048;-75
2023/01/06 01:14:34;;;;;;;1.20;0.77;;;;;;;;;;5036678;28;20051;-76
2023/01/06 01:17:00;;;;;;;0.85;0.75;;;;;;;;;;5048459;28;20656;-76
2023/01/06 01:19:27;;;;;;;0.80;0.80;;;9.90;99.90;;;;;;5048417;28;20100;-76
2023/01/06 01:21:52;;;;;;;0.93;0.60;;;10.00;99.90;;;;;;5048524;28;20029;-76
2023/01/06 01:24:19;;;;;;;0.63;0.63;;;;;;;;;;5049538;28;20009;-77
2023/01/06 01:26:45;;;;;;;1.20;1.00;;;10.10;99.90;;;;;;5048607;28;20114;-76
2023/01/06 01:29:14;;;;;;;0.60;0.60;;;9.80;99.90;;;;;;5048848;28;20104;-76
2023/01/06 01:31:40;;;;;;;1.70;0.65;;;9.80;99.90;;;;;;5043411;28;20045;-76
2023/01/06 01:34:06;;;;;;;0.70;0.70;;;;;;;;;;5046093;28;20044;-76
2023/01/06 01:36:32;;;;;;;0.68;0.68;;;;;;;;;;5052352;28;20480;-76
2023/01/06 01:38:58;;;;;;;0.50;0.50;;;;;;;;;;5058412;28;20027;-76
2023/01/06 01:41:25;;;;;;;0.60;0.60;;;9.80;99.90;;;;;;5056902;28;20148;-76
2023/01/06 01:43:56;;;;;;;0.60;0.60;;;9.80;99.90;;;;;;5047308;28;20045;-76
2023/01/06 01:46:29;;;;;;;0.70;0.70;;;9.80;99.90;;;;;;5048056;28;20578;-76
2023/01/06 01:48:59;;;;;;;1.10;0.95;;;9.60;99.90;;;;;;5047245;28;20036;-76
2023/01/06 01:51:33;;;;;;;0.50;0.50;;;9.90;99.90;;;;;;5057238;28;20683;-76
2023/01/06 01:54:02;;;;;;;2.05;0.68;;;9.90;99.90;;;;;;5067096;28;20657;-76
2023/01/06 01:56:32;;;;;;;0.55;0.55;;;9.90;99.90;;;;;;5067692;28;20071;-76
2023/01/06 01:59:09;;;;;;;0.60;0.60;;;9.90;99.90;;;;;;5066776;28;20036;-77
2023/01/06 02:01:35;;;;;;;0.60;0.60;;;9.90;99.90;;;;;;5067121;28;20032;-76
2023/01/06 02:04:02;;;;;;;0.70;0.70;;;9.70;99.90;;;;;;5066440;28;20020;-76
2023/01/06 02:06:29;;;;;;;0.60;0.60;;;9.80;99.90;;;;;;5060172;28;20041;-76
2023/01/06 02:09:04;;;;;;;0.50;0.50;;;9.80;99.90;;;;;;5060393;28;20559;-76
2023/01/06 02:11:32;;;;;;;0.80;0.80;;;9.80;99.90;;;;;;5067170;28;20553;-76
2023/01/06 02:14:13;;;;;;;0.85;0.50;;;9.90;99.90;;;;;;5066387;28;20107;-76
2023/01/06 02:16:48;;;;;;;2.28;0.80;;;9.70;99.90;;;;;;5057933;28;20032;-76
2023/01/06 02:19:44;;;;;;;0.60;0.60;;;9.80;99.90;;;;;;5047874;28;20025;-76
2023/01/06 02:22:26;;;;;;;4.40;0.80;;;9.80;99.90;;;;;;5047362;28;20033;-76
2023/01/06 02:25:20;;;;;;;1.10;1.00;;;9.70;99.90;;;;;;5047501;28;20032;-76
2023/01/06 02:28:21;;;;;;;1.10;0.90;;;9.80;99.90;;;;;;5047630;28;20128;-77
2023/01/06 02:31:15;;;;;;;1.33;1.10;;;9.50;99.90;;;;;;5045808;28;20025;-76
2023/01/06 02:33:56;;;;;;;1.15;0.77;;;9.60;99.90;;;;;;5047272;28;20513;-77
2023/01/06 02:36:36;;;;;;;0.98;0.70;;;9.40;99.90;;;;;;5046904;28;20446;-75
2023/01/06 02:39:32;;;;;;;0.95;0.70;;;9.60;99.90;;;;;;5041873;28;20021;-76
2023/01/06 02:42:04;;;;;;;0.57;0.57;;;10.10;99.90;;;;;;5044414;28;20517;-76
2023/01/06 02:44:56;;;;;;;0.60;0.60;;;9.60;99.90;;;;;;5046207;28;20065;-76
2023/01/06 02:47:46;;;;;;;1.35;1.05;;;9.60;99.90;;;;;;5043886;28;20646;-75
2023/01/06 02:50:49;;;;;;;1.05;0.80;;;9.30;99.90;;;;;;5048094;28;20104;-76
2023/01/06 02:53:34;;;;;;;2.47;1.10;;;9.60;99.90;;;;;;5046041;28;20382;-76
2023/01/06 02:56:01;;;;;;;1.42;1.33;;;9.40;99.90;;;;;;5047314;28;20493;-75
2023/01/06 02:58:36;;;;;;;0.95;0.88;;;9.50;99.90;;;;;;5048011;28;20100;-77
2023/01/06 03:01:12;;;;;;;1.45;0.90;;;9.40;99.90;;;;;;5048123;28;20560;-76
2023/01/06 03:03:41;;;;;;;1.38;1.00;;;9.50;99.90;;;;;;5036836;28;20029;-76
2023/01/06 03:06:12;;;;;;;2.45;1.10;;;9.40;99.90;;;;;;5049322;28;20428;-76
2023/01/06 03:08:38;;;;;;;3.25;1.55;;;9.50;99.90;;;;;;5046859;28;20485;-76
2023/01/06 03:11:04;;;;;;;1.33;1.00;;;;;;;;;;5049194;28;20065;-76
2023/01/06 03:14:02;;;;;;;2.75;1.30;;;9.50;99.90;;;;;;5046671;28;20025;-76
2023/01/06 03:16:29;;;;;;;1.35;1.00;;;;;;;;;;5043852;28;20074;-77
2023/01/06 03:18:55;;;;;;;2.03;1.73;;;9.40;99.90;;;;;;5049059;28;20508;-76
2023/01/06 03:21:28;;;;;;;1.20;1.10;;;9.40;99.90;;;;;;5041919;28;20029;-76
2023/01/06 03:23:54;;;;;;;1.95;1.33;;;;;;;;;;5049492;28;20452;-76
2023/01/06 03:26:20;;;;;;;3.50;1.33;;;;;;;;;;5048143;28;20077;-76
2023/01/06 03:28:46;;;;;;;1.92;1.73;;;9.70;99.90;;;;;;5049890;28;20074;-76
2023/01/06 03:31:25;;;;;;;1.88;1.20;;;9.50;99.90;;;;;;5048327;28;20021;-76
2023/01/06 03:34:18;;;;;;;2.47;1.00;;;9.30;99.90;;;;;;5050362;28;20077;-76
2023/01/06 03:37:22;;;;;;;2.33;1.05;;;9.50;99.90;;;;;;5049484;28;20488;-76
2023/01/06 03:40:07;;;;;;;1.88;1.10;;;9.60;99.90;;;;;;5038031;28;20167;-76
2023/01/06 03:45:35;;;;;;;1.38;0.70;;;;;;;;;;5065419;28;20082;-76
2023/01/06 03:48:10;;;;;;;1.63;1.02;;;9.40;99.90;;;;;;5065741;28;20032;-76
2023/01/06 03:51:06;;;;;;;1.88;1.00;;;9.60;99.90;;;;;;5054365;28;20029;-76
2023/01/06 03:53:34;;;;;;;0.80;0.80;;;9.40;99.90;;;;;;5065118;28;20029;-76
2023/01/06 03:56:14;;;;;;;0.82;0.70;;;9.30;99.90;;;;;;5066093;28;20048;-76
2023/01/06 03:58:40;;;;;;;3.60;1.63;;;;;;;;;;5042863;28;20115;-76
2023/01/06 04:01:07;;;;;;;1.83;0.98;;;9.40;99.90;;;;;;5052643;28;20026;-76
2023/01/06 04:03:33;;;;;;;1.50;0.90;;;9.50;99.90;;;;;;5058498;28;20044;-76
2023/01/06 04:05:59;;;;;;;2.13;1.55;;;;;;;;;;5049799;28;20101;-76
2023/01/06 04:08:25;;;;;;;1.80;1.10;;;9.50;99.90;;;;;;5050316;28;20427;-76
2023/01/06 04:10:51;;;;;;;1.30;1.10;;;9.60;99.90;;;;;;5050564;28;20521;-76
2023/01/06 04:13:17;;;;;;;2.10;1.10;;;;;;;;;;5049570;28;20053;-76
2023/01/06 04:15:42;;;;;;;1.27;0.80;;;9.40;99.90;;;;;;5049997;28;20033;-76
2023/01/06 04:18:08;;;;;;;2.50;1.25;;;;;;;;;;5050204;28;20021;-76
2023/01/06 04:20:35;;;;;;;1.00;0.90;;;;;;;;;;5050793;28;20047;-76
2023/01/06 04:23:00;;;;;;;1.52;0.80;;;9.50;99.90;;;;;;5050645;28;20402;-76
2023/01/06 04:25:26;;;;;;;1.60;1.20;;;;;;;;;;5050466;28;20021;-76
2023/01/06 04:27:53;;;;;;;1.20;0.90;;;;;;;;;;5049721;28;20043;-76
2023/01/06 04:30:18;;;;;;;1.17;1.05;;;9.50;99.90;;;;;;5050513;28;20021;-76
2023/01/06 04:32:44;;;;;;;0.80;0.80;;;9.30;99.90;;;;;;5050063;28;20039;-76
2023/01/06 04:35:10;;;;;;;3.22;1.20;;;9.30;99.90;;;;;;5050132;28;20029;-76
2023/01/06 04:37:36;;;;;;;0.70;0.70;;;9.50;99.90;;;;;;5050683;28;20029;-76
2023/01/06 04:40:02;;;;;;;2.90;0.73;;;9.60;99.90;;;;;;5050973;28;20029;-76
2023/01/06 04:42:28;;;;;;;1.20;0.82;;;9.20;99.90;;;;;;5056958;28;20401;-76
2023/01/06 04:44:54;;;;;;;1.20;1.13;;;;;;;;;;5052395;28;20029;-76
2023/01/06 04:47:19;;;;;;;0.98;0.80;;;9.50;99.90;;;;;;5049752;28;20509;-76
2023/01/06 04:49:45;;;;;;;1.13;1.02;;;;;;;;;;5049971;28;20078;-76
2023/01/06 04:52:11;;;;;;;1.45;0.90;;;;;;;;;;5049889;28;20404;-76
2023/01/06 04:54:37;;;;;;;1.50;0.73;;;;;;;;;;5049564;28;20074;-76
2023/01/06 04:57:03;;;;;;;1.30;1.00;;;;;;;;;;5049225;28;20036;-76
2023/01/06 04:59:29;;;;;;;0.73;0.73;;;;;;;;;;5049437;28;20032;-76
2023/01/06 05:01:55;;;;;;;0.85;0.85;;;;;;;;;;5048898;28;20029;-76
2023/01/06 05:04:21;;;;;;;0.85;0.82;;;;;;;;;;5049116;28;20115;-74
2023/01/06 05:06:47;;;;;;;1.30;1.15;;;;;;;;;;5049661;28;20033;-76
2023/01/06 05:09:13;;;;;;;0.82;0.82;;;;;;;;;;5050063;28;20466;-76
2023/01/06 05:11:40;;;;;;;2.42;0.90;;;;;;;;;;5061147;28;20047;-76
2023/01/06 05:14:05;;;;;;;1.63;1.02;;;9.40;99.90;;;;;;5062390;28;20035;-75
2023/01/06 05:16:32;;;;;;;16.63;1.73;;;9.50;99.90;;;;;;5067840;28;20032;-76
2023/01/06 05:18:59;;;;;;;2.58;1.42;;;9.40;99.90;;;;;;5062764;28;20036;-76
2023/01/06 05:21:26;;;;;;;2.65;1.55;;;9.50;99.90;;;;;;5068390;28;20127;-76
2023/01/06 05:23:52;;;;;;;5.85;1.42;;;;;;;;;;5053811;28;20053;-76
2023/01/06 05:26:21;;;;;;;1.27;1.17;;;10.10;99.90;;;;;;5066859;28;20039;-77
2023/01/06 05:28:47;;;;;;;1.92;1.20;;;9.30;99.90;;;;;;5063852;28;20081;-77
2023/01/06 05:31:13;;;;;;;1.70;1.20;;;;;;;;;;5067026;28;20437;-76
2023/01/06 05:33:39;;;;;;;2.72;1.42;;;;;;;;;;5067780;28;20017;-76
2023/01/06 05:36:10;;;;;;;3.80;2.22;;;9.30;99.90;;;;;;5068587;28;20167;-76
2023/01/06 05:38:36;;;;;;;3.83;1.67;;;9.50;99.90;;;;;;5068006;28;20020;-76
2023/01/06 05:41:02;;;;;;;1.65;1.10;;;9.30;99.90;;;;;;5058170;28;20556;-76
2023/01/06 05:43:28;;;;;;;1.40;0.98;;;9.70;99.90;;;;;;5046381;28;20056;-77
2023/01/06 05:45:54;;;;;;;3.90;1.65;;;;;;;;;;5048732;28;20040;-76
2023/01/06 05:48:24;;;;;;;1.60;1.10;;;9.40;99.90;;;;;;5048828;28;20032;-76
2023/01/06 05:50:50;;;;;;;1.35;1.13;;;;;;;;;;5047661;28;20460;-76
2023/01/06 05:53:17;;;;;;;2.30;1.30;;;;;;;;;;5045819;28;20013;-76
2023/01/06 05:55:42;;;;;;;4.45;1.60;;;;;;;;;;5048789;28;20431;-76
2023/01/06 05:58:08;;;;;;;2.03;1.52;;;;;;;;;;5048313;28;20084;-76
2023/01/06 06:00:34;;;;;;;3.13;1.60;;;;;;;;;;5048107;28;20032;-76
2023/01/06 06:03:00;;;;;;;2.50;1.77;;;;;;;;;;5038649;28;20029;-76
2023/01/06 06:05:26;;;;;;;1.75;1.05;;;;;;;;;;5059608;28;20082;-76
2023/01/06 06:07:54;;;;;;;2.08;1.33;;;9.50;99.90;;;;;;5067832;28;20501;-76
2023/01/06 06:10:20;;;;;;;2.40;1.75;;;;;;;;;;5043795;28;20029;-76
2023/01/06 06:12:45;;;;;;;3.00;1.75;;;9.40;99.90;;;;;;5034143;28;20518;-76
2023/01/06 06:15:11;;;;;;;2.75;1.08;;;;;;;;;;5027165;28;20108;-76
2023/01/06 06:17:37;;;;;;;1.58;1.30;;;;;;;;;;5028914;28;20483;-76
2023/01/06 06:20:04;;;;;;;1.40;0.90;;;;;;;;;;5032885;28;20036;-76
2023/01/06 06:22:29;;;;;;;6.75;2.00;;;;;;;;;;5031369;28;20025;-76
2023/01/06 06:24:55;;;;;;;2.72;1.40;;;;;;;;;;5040756;28;20029;-76
2023/01/06 06:27:21;;;;;;;2.03;1.30;;;;;;;;;;5046372;28;20071;-72
2023/01/06 06:29:47;;;;;;;5.95;2.13;;;;;;;;;;5034219;28;20029;-73
2023/01/06 06:32:13;;;;;;;3.75;1.67;;;;;;;;;;5035135;28;20033;-73
2023/01/06 06:34:39;;;;;;;3.15;2.03;;;;;;;;;;5034568;28;20053;-73
2023/01/06 06:37:05;;;;;;;2.15;1.77;;;;;;;;;;5037793;28;20116;-73
2023/01/06 06:39:31;;;;;;;3.05;1.25;;;;;;;;;;5043965;28;20111;-72
2023/01/06 06:41:57;;;;;;;2.22;1.52;;;9.70;99.90;;;;;;5033552;28;20858;-73
2023/01/06 06:44:23;;;;;;;4.82;1.50;;;;;;;;;;5026119;28;20048;-73
2023/01/06 06:46:49;;;;;;;2.33;1.58;;;;;;;;;;5036132;28;20573;-74
2023/01/06 06:49:15;;;;;;;5.68;2.38;;;;;;;;;;5034328;27;20017;-75
2023/01/06 06:51:41;;;;;;;2.08;1.88;;;10.00;99.90;;;;;;5040417;28;20043;-75
2023/01/06 06:54:07;;;;;;;2.08;1.33;;;;;;;;;;5059540;28;20055;-75
2023/01/06 06:56:33;;;;;;;2.72;1.40;;;;;;;;;;5062847;28;20510;-75
2023/01/06 06:58:59;;;;;;;2.33;1.40;;;;;;;;;;5063530;28;20017;-75
2023/01/06 07:01:25;;;;;;;0.88;0.85;;;;;;;;;;5063017;28;20055;-75
2023/01/06 07:03:50;;;;;;;1.65;1.20;;;;;;;;;;5064524;28;20024;-75
2023/01/06 07:06:22;;;;;;;3.03;1.42;;;9.50;99.90;;;;;;5062500;28;20045;-75
2023/01/06 07:08:48;;;;;;;2.88;1.83;;;;;;;;;;5063896;28;20074;-74
2023/01/06 07:11:14;;;;;;;3.05;1.98;;;9.40;99.90;;;;;;5062963;28;20035;-74
2023/01/06 07:13:40;;;;;;;5.75;2.70;;;9.40;99.90;;;;;;5058023;28;20681;-75
2023/01/06 07:16:06;;;;;;;6.65;3.28;;;9.60;99.90;;;;;;5041096;28;20089;-75
2023/01/06 07:18:32;;;;;;;10.02;2.92;;;9.40;99.90;;;;;;5049860;28;20034;-74
2023/01/06 07:20:58;;;;;;;23.27;8.18;;;9.60;99.90;;;;;;5039924;28;20802;-74
2023/01/06 07:23:24;;;;;;;14.43;6.10;;;9.50;99.90;;;;;;5038834;28;20040;-75
2023/01/06 07:25:53;;;;;;;9.27;3.95;;;9.40;99.90;;;;;;5044097;28;20017;-78
2023/01/06 07:28:20;;;;;;;7.85;3.30;;;9.60;99.90;;;;;;5034192;28;20041;-78
2023/01/06 07:30:46;;;;;;;8.07;3.75;;;;;;;;;;5041467;28;20022;-78
2023/01/06 07:33:11;;;;;;;8.73;4.35;;;9.60;99.90;;;;;;5037461;28;20506;-78
2023/01/06 07:35:37;;;;;;;9.68;4.85;;;;;;;;;;5037071;28;20068;-78
2023/01/06 07:38:05;;;;;;;9.80;4.57;;;9.50;99.90;;;;;;5036760;28;20025;-77
2023/01/06 07:40:31;;;;;;;7.65;3.22;;;;;;;;;;5040004;28;20047;-76
2023/01/06 07:42:57;;;;;;;10.93;3.40;;;;;;;;;;5031326;28;20080;-79
2023/01/06 07:45:23;;;;;;;6.22;3.30;;;;;;;;;;5037181;28;20048;-79
2023/01/06 07:47:49;;;;;;;4.13;2.45;;;;;;;;;;5045007;28;20128;-78
2023/01/06 07:50:14;;;;;;;3.47;2.00;;;10.10;99.90;;;;;;5039042;28;20547;-74
2023/01/06 07:52:40;;;;;;;7.50;3.53;;;;;;;;;;5059530;28;20043;-76
2023/01/06 07:55:06;;;;;;;15.95;7.63;;;9.60;99.90;;;;;;5044782;28;20793;-76
2023/01/06 07:57:32;;;;;;;14.75;7.35;;;;;;;;;;5052145;28;20028;-76
2023/01/06 07:59:58;;;;;;;8.80;4.63;;;;;;;;;;5040427;28;20051;-78
2023/01/06 08:02:24;;;;;;;5.38;3.00;;;9.60;99.90;;;;;;5042868;28;20021;-77
2023/01/06 08:04:50;;;;;;;7.00;2.63;;;10.30;99.90;;;;;;5038871;28;20131;-77
2023/01/06 08:07:16;;;;;;;4.65;2.78;;;9.80;99.90;;;;;;5038377;28;20051;-75
2023/01/06 08:09:42;;;;;;;7.55;3.25;;;;;;;;;;5046426;28;20051;-77
2023/01/06 08:12:08;;;;;;;5.72;3.33;;;;;;;;;;5057332;28;20482;-76
2023/01/06 08:14:34;;;;;;;6.30;2.97;;;;;;;;;;5060819;28;20043;-76
2023/01/06 08:17:00;;;;;;;5.15;2.72;;;;;;;;;;5051319;28;20013;-75
2023/01/06 08:19:26;;;;;;;15.32;4.00;;;;;;;;;;5038453;28;20478;-75
2023/01/06 08:21:52;;;;;;;4.57;3.22;;;;;;;;;;5051205;28;20063;-75
2023/01/06 08:24:18;;;;;;;8.38;2.58;;;;;;;;;;5066760;28;20032;-75
2023/01/06 08:26:44;;;;;;;4.97;2.38;;;;;;;;;;5053743;28;20106;-77
2023/01/06 08:29:10;;;;;;;1.63;1.40;;;;;;;;;;5065502;28;20040;-75
2023/01/06 08:31:35;;;;;;;5.60;1.77;;;10.00;99.90;;;;;;5067751;28;20032;-76
2023/01/06 08:34:01;;;;;;;2.20;1.25;;;;;;;;;;5065900;28;20020;-77
2023/01/06 08:36:28;;;;;;;3.55;1.25;;;;;;;;;;5053376;28;20036;-76
2023/01/06 08:38:54;;;;;;;2.50;1.90;;;;;;;;;;5062068;28;20040;-76
2023/01/06 08:41:20;;;;;;;5.65;2.08;;;9.90;99.90;;;;;;5052551;28;20104;-78
2023/01/06 08:43:46;;;;;;;1.42;1.33;;;;;;;;;;5046307;28;20073;-78
2023/01/06 08:46:15;;;;;;;2.95;1.42;;;9.80;99.90;;;;;;5047559;28;20383;-75
2023/01/06 08:48:41;;;;;;;2.25;1.38;;;10.10;99.90;;;;;;5047271;28;20096;-75
2023/01/06 08:51:11;;;;;;;2.55;1.70;;;9.60;99.90;;;;;;5046640;28;20073;-74
2023/01/06 08:53:37;;;;;;;2.28;2.08;;;;;;;;;;5047647;28;20052;-75
2023/01/06 08:56:03;;;;;;;2.67;2.22;;;;;;;;;;5047362;28;20402;-75
2023/01/06 08:58:29;;;;;;;2.85;1.70;;;;;;;;;;5042670;28;20083;-73
2023/01/06 09:00:55;;;;;;;3.42;1.90;;;;;;;;;;5037649;28;20040;-75
2023/01/06 09:03:21;;;;;;;2.05;1.70;;;;;;;;;;5033658;28;20482;-74
2023/01/06 09:05:54;;;;;;;2.50;1.65;;;10.10;99.90;;;;;;5047326;28;20033;-76
2023/01/06 09:08:20;;;;;;;2.08;1.80;;;;;;;;;;5046899;28;20494;-76
2023/01/06 09:10:46;;;;;;;3.63;2.42;;;;;;;;;;5035590;28;20032;-75
2023/01/06 09:13:12;;;;;;;5.18;2.03;;;;;;;;;;5054051;28;20025;-78
2023/01/06 09:15:39;;;;;;;5.70;2.50;;;10.30;99.90;;;;;;5065037;28;20035;-78
2023/01/06 09:18:07;;;;;;;3.70;3.03;;;;;;;;;;5066161;28;20020;-77
2023/01/06 09:20:33;;;;;;;;;;;10.40;99.90;;;;;;5053037;28;20108;-76
2023/01/06 09:22:59;;;;;;;3.67;2.70;;;;;;;;;;5066201;28;20002;-75
2023/01/06 09:25:25;;;;;;;5.88;2.33;;;;;;;;;;5065565;28;20024;-74
2023/01/06 09:27:51;;;;;;;4.47;2.13;;;;;;;;;;5060720;28;20064;-77
2023/01/06 09:30:17;;;;;;;5.13;2.75;;;;;;;;;;5060794;28;20780;-76
2023/01/06 09:32:43;;;;;;;3.28;2.03;;;;;;;;;;5066148;28;20055;-77
2023/01/06 09:35:09;;;;;;;7.35;2.83;;;10.70;99.90;;;;;;5065482;28;20692;-77
2023/01/06 09:37:35;;;;;;;2.92;1.92;;;;;;;;;;5066357;28;20046;-77
2023/01/06 09:40:01;;;;;;;3.35;2.22;;;;;;;;;;5064847;28;20137;-77
2023/01/06 09:42:50;;;;;;;4.50;1.83;;;10.70;99.90;;;;;;5053399;28;20490;-76
2023/01/06 09:45:19;;;;;;;3.47;1.58;;;10.90;99.90;;;;;;5065552;28;20040;-77
2023/01/06 09:47:54;;;;;;;1.63;1.50;;;10.90;99.90;;;;;;5066046;28;20060;-77
2023/01/06 09:50:42;;;;;;;2.20;1.63;;;10.90;99.90;;;;;;5065342;28;20529;-76
2023/01/06 09:53:21;;;;;;;2.17;1.20;;;10.90;99.90;;;;;;5065500;28;20717;-76
2023/01/06 09:55:56;;;;;;;2.00;1.67;;;11.00;99.90;;;;;;5065207;28;20085;-76
2023/01/06 09:58:46;;;;;;;1.55;1.45;;;11.00;99.90;;;;;;5058271;28;20036;-74
2023/01/06 10:01:15;;;;;;;2.70;1.58;;;11.00;99.90;;;;;;5012326;28;20034;-74
2023/01/06 10:03:44;;;;;;;3.70;1.85;;;11.10;99.90;;;;;;5020764;28;20091;-73
2023/01/06 10:06:48;;;;;;;2.58;1.65;;;11.20;99.90;;;;;;5012363;28;20844;-74
2023/01/06 10:09:23;;;;;;;2.00;1.45;;;;;;;;;;5017869;28;20036;-74
2023/01/06 10:11:51;;;;;;;1.40;1.30;;;11.30;99.90;;;;;;5027792;28;20041;-74
2023/01/06 10:14:37;;;;;;;4.43;1.98;;;11.30;99.90;;;;;;5033564;28;20055;-73
2023/01/06 10:17:40;;;;;;;2.13;1.33;;;11.40;99.90;;;;;;5031431;28;20116;-74
2023/01/06 10:20:24;;;;;;;2.92;1.67;;;11.40;99.90;;;;;;5030642;28;20191;-75
2023/01/06 10:23:08;;;;;;;2.13;1.08;;;11.60;99.90;;;;;;5036650;28;20021;-74
2023/01/06 10:25:40;;;;;;;1.90;1.33;;;11.80;99.90;;;;;;5032242;28;20051;-75
2023/01/06 10:28:17;;;;;;;3.03;1.60;;;12.00;99.90;;;;;;5033532;28;20049;-74
2023/01/06 10:30:50;;;;;;;;;;;12.00;99.90;;;;;;5017674;28;20049;-74
2023/01/06 10:33:45;;;;;;;1.45;0.90;;;12.10;99.90;;;;;;5030947;28;19909;-74
2023/01/06 10:36:16;;;;;;;1.42;0.90;;;12.20;99.90;;;;;;5030049;28;20545;-75
2023/01/06 10:38:52;;;;;;;1.48;1.20;;;12.40;99.90;;;;;;5048252;28;20024;-74
2023/01/06 10:41:49;;;;;;;1.45;1.23;;;12.60;99.90;;;;;;5047561;28;20024;-75
2023/01/06 10:44:16;;;;;;;1.45;1.00;;;12.50;99.90;;;;;;5034998;28;20044;-75
2023/01/06 10:46:44;;;;;;;3.22;2.55;;;;;;;;;;5048681;28;20563;-74
2023/01/06 10:49:19;;;;;;;3.25;2.20;;;12.30;99.90;;;;;;5065537;28;20412;-74
2023/01/06 10:51:53;;;;;;;7.05;2.97;;;12.40;99.90;;;;;;5065583;28;20463;-73
2023/01/06 10:54:26;;;;;;;5.28;2.90;;;12.20;99.90;;;;;;5065883;28;20568;-75
2023/01/06 10:57:01;;;;;;;3.78;2.38;;;12.10;99.90;;;;;;5064716;28;20017;-75
2023/01/06 10:59:29;;;;;;;3.25;1.95;;;12.00;99.90;;;;;;5064665;28;20028;-74
2023/01/06 11:01:55;;;;;;;4.47;2.50;;;11.90;99.90;;;;;;5065567;28;20543;-74
2023/01/06 11:04:22;;;;;;;4.57;2.93;;;;;;;;;;5064759;28;20029;-74
2023/01/06 11:06:58;;;;;;;4.75;2.30;;;11.90;99.90;;;;;;5065159;28;20397;-74
2023/01/06 11:09:38;;;;;;;3.50;2.13;;;12.00;99.90;;;;;;5064007;28;20085;-73
2023/01/06 11:12:18;;;;;;;3.17;1.88;;;11.90;99.90;;;;;;5064315;28;20482;-73
2023/01/06 11:14:51;;;;;;;3.53;1.88;;;11.90;99.90;;;;;;5044897;28;20512;-73
2023/01/06 11:17:21;;;;;;;3.95;1.83;;;11.80;99.90;;;;;;5063963;28;20021;-74
2023/01/06 11:20:23;;;;;;;2.00;1.52;;;11.70;99.90;;;;;;5038332;28;20087;-74
2023/01/06 11:22:49;;;;;;;5.63;1.58;;;;;;;;;;5037401;28;20040;-74
2023/01/06 11:25:21;;;;;;;2.63;1.83;;;11.60;99.90;;;;;;5045822;28;20118;-74
2023/01/06 11:27:47;;;;;;;2.80;1.92;;;;;;;;;;5063818;28;20127;-74
2023/01/06 11:30:27;;;;;;;5.47;2.63;;;11.50;99.90;;;;;;5058666;28;20125;-75
2023/01/06 11:32:54;;;;;;;3.58;1.83;;;11.50;99.90;;;;;;5049574;28;20029;-73
2023/01/06 11:35:23;;;;;;;3.58;2.05;;;11.30;99.90;;;;;;5061536;28;20036;-73
2023/01/06 11:37:57;;;;;;;3.60;1.90;;;11.30;99.90;;;;;;5060454;28;20024;-73
2023/01/06 11:40:29;;;;;;;3.70;1.55;;;11.10;99.90;;;;;;5059601;28;20033;-73
2023/01/06 11:42:58;;;;;;;2.58;1.42;;;11.00;99.90;;;;;;5062838;28;20600;-73
2023/01/06 11:45:31;;;;;;;1.98;1.35;;;11.30;99.90;;;;;;5071382;28;20036;-73
2023/01/06 11:47:57;;;;;;;3.08;1.13;;;;;;;;;;5054822;28;20497;-73
2023/01/06 11:50:23;;;;;;;2.78;1.00;;;;;;;;;;5040954;28;20091;-72
2023/01/06 11:53:11;;;;;;;1.33;0.90;;;11.00;99.90;;;;;;5053736;28;20040;-73
2023/01/06 11:55:37;;;;;;;2.15;1.17;;;10.90;99.90;;;;;;5051790;28;20155;-73
2023/01/06 11:58:10;;;;;;;1.85;1.70;;;10.90;99.90;;;;;;5054736;28;20029;-73
2023/01/06 12:01:06;;;;;;;3.25;1.30;;;10.90;99.90;;;;;;5050709;28;20156;-73
2023/01/06 12:03:40;;;;;;;1.10;1.00;;;11.00;99.90;;;;;;5039874;28;20038;-73
2023/01/06 12:06:32;;;;;;;1.58;1.20;;;10.80;99.90;;;;;;5062400;28;20796;-73
2023/01/06 12:09:08;;;;;;;0.70;0.70;;;10.80;99.90;;;;;;5060443;28;20055;-73
2023/01/06 12:11:41;;;;;;;0.80;0.80;;;10.80;99.90;;;;;;5048551;28;20029;-73
2023/01/06 12:14:27;;;;;;;3.25;0.77;;;10.80;99.90;;;;;;5046087;28;20020;-73
2023/01/06 12:16:53;;;;;;;4.05;0.93;;;;;;;;;;5041571;28;20033;-73
2023/01/06 12:19:30;;;;;;;1.08;0.85;;;10.20;99.90;;;;;;5048850;28;20397;-73
2023/01/06 12:21:57;;;;;;;0.73;0.73;;;10.90;99.90;;;;;;5050936;28;20029;-72
2023/01/06 12:24:24;;;;;;;0.60;0.60;;;10.90;99.90;;;;;;5064216;28;20027;-73
2023/01/06 12:26:51;;;;;;;0.70;0.70;;;10.70;99.90;;;;;;5055659;28;20418;-73
2023/01/06 12:29:20;;;;;;;0.98;0.63;;;10.70;99.90;;;;;;5062516;28;20027;-73
2023/01/06 12:32:03;;;;;;;1.27;1.05;;;10.90;99.90;;;;;;5055975;28;20498;-73
2023/01/06 12:34:40;;;;;;;0.95;0.80;;;10.90;99.90;;;;;;5045041;28;20087;-73
2023/01/06 12:37:29;;;;;;;0.50;0.50;;;11.40;99.90;;;;;;5047298;28;20029;-73
2023/01/06 12:40:43;;;;;;;0.70;0.70;;;10.90;99.90;;;;;;5050635;28;20040;-73
2023/01/06 12:43:09;;;;;;;1.35;0.77;;;;;;;;;;5026546;28;20041;-77
2023/01/06 12:46:04;;;;;;;1.30;0.55;;;10.90;99.90;;;;;;5048338;28;20059;-77
2023/01/06 12:48:36;;;;;;;1.25;0.68;;;10.90;99.90;;;;;;5057116;28;20669;-76
2023/01/06 12:51:17;;;;;;;1.08;0.60;;;11.00;99.90;;;;;;5044914;28;20048;-76
2023/01/06 12:53:51;;;;;;;0.80;0.60;;;10.80;99.90;;;;;;5052351;28;20111;-77
2023/01/06 12:56:25;;;;;;;0.55;0.55;;;10.90;99.90;;;;;;5053742;28;20048;-77
2023/01/06 12:59:21;;;;;;;0.50;0.50;;;10.70;99.90;;;;;;5055018;28;20722;-77
2023/01/06 13:02:18;;;;;;;1.08;0.68;;;11.00;99.90;;;;;;5056203;28;20059;-77
2023/01/06 13:05:01;;;;;;;;;;;11.00;99.90;;;;;;5057127;28;20024;-76
2023/01/06 13:07:38;;;;;;;0.80;0.80;;;10.90;99.90;;;;;;5045260;28;20381;-77
2023/01/06 13:11:01;;;;;;;1.75;0.90;;;10.90;99.90;;;;;;5048668;28;20484;-77
2023/01/06 13:13:30;;;;;;;1.30;1.00;;;10.80;99.90;;;;;;5026466;28;20033;-77
2023/01/06 13:15:59;;;;;;;1.55;1.45;;;10.80;99.90;;;;;;5031202;28;20037;-76
2023/01/06 13:18:27;;;;;;;0.80;0.80;;;;;;;;;;5030187;28;20041;-76
2023/01/06 13:21:08;;;;;;;0.68;0.50;;;10.70;99.90;;;;;;5031501;28;20492;-76
2023/01/06 13:23:55;;;;;;;1.00;0.70;;;10.90;99.90;;;;;;5028413;28;20618;-76
2023/01/06 13:26:38;;;;;;;1.45;1.35;;;10.90;99.90;;;;;;5028535;28;20081;-76
2023/01/06 13:29:33;;;;;;;2.58;0.85;;;10.90;99.90;;;;;;5012330;28;20052;-77
2023/01/06 13:32:10;;;;;;;0.70;0.60;;;10.70;99.90;;;;;;5016162;28;20044;-77
2023/01/06 13:34:36;;;;;;;0.40;0.40;;;;;;;;;;5028497;28;20037;-77
2023/01/06 13:37:37;;;;;;;0.68;0.68;;;10.90;99.90;;;;;;5029826;28;20489;-77
2023/01/06 13:40:08;;;;;;;0.73;0.70;;;10.90;99.90;;;;;;5028246;28;20043;-74
2023/01/06 13:42:51;;;;;;;0.68;0.60;;;10.90;99.90;;;;;;5031837;28;20025;-75
2023/01/06 13:45:24;;;;;;;1.48;1.00;;;10.90;99.90;;;;;;5063800;28;20043;-75
2023/01/06 13:47:50;;;;;;;2.97;1.27;;;11.00;99.90;;;;;;5067027;28;20037;-76
2023/01/06 13:50:19;;;;;;;2.20;0.73;;;11.00;99.90;;;;;;5066943;28;20029;-74
2023/01/06 13:52:45;;;;;;;2.45;1.05;;;;;;;;;;5054808;28;20037;-75
2023/01/06 13:55:23;;;;;;;2.22;0.80;;;10.70;99.90;;;;;;5047142;28;20020;-74
2023/01/06 13:57:50;;;;;;;0.68;0.68;;;;;;;;;;5060674;28;20381;-75
2023/01/06 14:00:18;;;;;;;0.80;0.65;;;10.70;99.90;;;;;;5059662;28;20025;-75